Flight Track Log - Related Links

Times and Time Zones

All times are in EST time to prevent confusion due to time zone crossing. See the FIN430 flight status page for this flight to view local times or setup timezone preferences in your user account.

Time Position Orientation Groundspeed Altitude Reporting Facility
EST Latitude Longitude Course Direction KTS MPH feet Rate Location/Type
Thu 11:25:00 AM 66.1901 25.7665 184° South  Level Estimated
Thu 11:26:00 AM 66.0652 25.7456 184° South  Level Estimated
Thu 11:27:00 AM 65.9402 25.7249 184° South  Level Estimated
Thu 11:28:00 AM 65.8153 25.7044 184° South  Level Estimated
Thu 11:29:00 AM 65.6904 25.6841 184° South  Level Estimated
Thu 11:30:00 AM 65.5655 25.6640 184° South  Level Estimated
Thu 11:31:00 AM 65.4405 25.6441 184° South  Level Estimated
Thu 11:32:00 AM 65.3156 25.6244 184° South  Level Estimated
Thu 11:33:00 AM 65.1907 25.6048 184° South  Level Estimated
Thu 11:34:00 AM 65.0657 25.5855 184° South  Level Estimated
Thu 11:35:00 AM 64.9408 25.5663 184° South  Level Estimated
Thu 11:36:00 AM 64.8158 25.5473 184° South  Level Estimated
Thu 11:37:00 AM 64.6909 25.5285 184° South  Level Estimated
Thu 11:38:00 AM 64.5659 25.5099 184° South  Level Estimated
Thu 11:39:00 AM 64.4410 25.4914 184° South  Level Estimated
Thu 11:40:00 AM 64.3160 25.4731 184° South  Level Estimated
Thu 11:41:00 AM 64.1911 25.4550 184° South  Level Estimated
Thu 11:42:00 AM 64.0661 25.4370 184° South  Level Estimated
Thu 11:43:00 AM 63.9412 25.4192 184° South  Level Estimated
Thu 11:44:00 AM 63.8162 25.4015 184° South  Level Estimated
Thu 11:45:00 AM 63.6912 25.3840 184° South  Level Estimated
Thu 11:46:00 AM 63.5663 25.3667 184° South  Level Estimated
Thu 11:47:00 AM 63.4413 25.3495 184° South  Level Estimated
Thu 11:48:00 AM 63.3163 25.3324 184° South  Level Estimated
Thu 11:49:00 AM 63.1914 25.3155 183° South  Level Estimated
Thu 11:50:00 AM 63.0664 25.2988 183° South  Level Estimated
Thu 11:51:00 AM 62.9414 25.2822 183° South  Level Estimated
Thu 11:52:00 AM 62.8164 25.2657 183° South  Level Estimated
Thu 11:53:00 AM 62.6939 25.2497 183° South  Level Estimated
Thu 11:54:00 AM 62.5714 25.2338 183° South  Level Estimated
Thu 11:55:00 AM 62.4488 25.2181 183° South  Level Estimated
Thu 11:56:00 AM 62.3263 25.2024 183° South  Level Estimated
Thu 11:57:00 AM 62.2038 25.1870 183° South  Level Estimated
Thu 11:58:00 AM 62.0812 25.1716 183° South  Level Estimated
Thu 11:59:00 AM 61.9587 25.1563 183° South  Level Estimated
Thu 12:00:00 PM 61.8362 25.1412 183° South  Level Estimated
Thu 12:01:00 PM 61.7136 25.1262 183° South  Level Estimated
Thu 12:02:00 PM 61.5911 25.1113 183° South  Level Estimated
Thu 12:03:00 PM 61.4685 25.0966 183° South  Level Estimated
Thu 12:04:00 PM 61.3460 25.0819 183° South  Level Estimated
Thu 12:05:00 PM 61.2234 25.0674 183° South  Level Estimated
Thu 12:06:00 PM 61.1009 25.0530 183° South  Level Estimated
Thu 12:07:00 PM 60.9783 25.0387 183° South  Level Estimated
Thu 12:08:00 PM 60.8558 25.0245 183° South  Level Estimated
Thu 12:09:00 PM 60.7332 25.0104 183° South  Level Estimated
Thu 12:10:00 PM 60.6107 24.9964 183° South  Level Estimated
Thu 12:11:00 PM 60.4881 24.9825 183° South  Level Estimated
Thu 12:12:00 PM 60.3655 24.9687 183° South  Level Estimated
Thu 12:13:00 PM 60.3172 24.9633 183° South  Level Estimated
Thu 12:14:00 PM 60.3172 24.9633 37° Northeast  Level Estimated
Thu 12:15:00 PM 60.3172 24.9633 37° Northeast  Level Estimated
Thu 12:16:00 PM 60.3172 24.9633 37° Northeast  Level Estimated
Thu 12:17:00 PM 60.3172 24.9633 37° Northeast  Level Estimated
Thu 12:18:00 PM 60.3172 24.9633 37° Northeast  Level Estimated
Thu 12:19:00 PM 60.3172 24.9633 37° Northeast  Level Estimated
Thu 12:20:00 PM 60.3172 24.9633 37° Northeast  Level Estimated
Thu 12:21:00 PM 60.3172 24.9633 37° Northeast  Level Estimated
Thu 12:22:00 PM 60.3172 24.9633 37° Northeast  Level Estimated
Thu 12:23:00 PM 60.3172 24.9633 37° Northeast  Level Estimated
Thu 12:24:00 PM 60.3172 24.9633 37° Northeast  Level Estimated
Thu 12:25:00 PM 60.3172 24.9633 37° Northeast  Level Estimated
Thu 12:26:00 PM 60.3172 24.9633 37° Northeast  Level Estimated

Login

Don't have an account? Register now (free) for customized features, flight alerts, and more!